Silia — WDG2034 — position and weather

sailwx.info

Track history (hours):
 
Tides and Currents Weather Stations Pressure Air Temp Water Temp Dewpoint Dewpoint Depression Visibility Wind Speed Wind Dir Waves Ship Positions

Silia

Owner: greger pacific marine, napa, CA. More information available from US FCC via Universal Licensing System and Coast Guard Vessel Documentation Center.

Last reported at 2015-Nov-24 19:31 UTC. Time now 2016-Feb-07 10:39 UTC.
Position N 38°02' W 122°22'.
Warning: this ship's position is months out of date.

Length 17 m; draft 3 m.

Type: Tug. MMSI: 367511460.

Date/timePositionNaut miles runAvg speedWind from/ knotsBaromVisibWave heightAir tempDewpointWater temp
2015-Nov-24 19:31N 38°02' W 122°22'9 8.9
2015-Nov-24 18:33N 37°54' W 122°26'3 2.9
2015-Nov-24 17:27N 37°52' W 122°30'0 0.0
2015-Nov-24 16:27N 37°52' W 122°30'0 0.2
2015-Nov-24 15:33N 37°52' W 122°30'4 0.4
2015-Nov-24 05:33N 37°50' W 122°26'8 7.7
2015-Nov-24 04:33N 37°47' W 122°16'0 0.3
2015-Nov-24 03:33N 37°48' W 122°17'5 5.2
2015-Nov-24 02:33N 37°49' W 122°23'5 4.7
2015-Nov-24 01:33N 37°52' W 122°28'0 0.1
2015-Nov-24 00:33N 37°52' W 122°28'1 0.8
2015-Nov-23 23:33N 37°52' W 122°29'2 1.7
2015-Nov-23 22:33N 37°51' W 122°27'1 0.9
2015-Nov-23 21:33N 37°52' W 122°28'1 0.3
2015-Nov-23 19:33N 37°52' W 122°29'9 9.1
2015-Nov-23 18:33N 37°48' W 122°19'3 2.9
2015-Nov-23 17:33N 37°47' W 122°15'4 4.3
2015-Nov-23 16:34N 37°48' W 122°21'5 4.6
2015-Nov-23 15:34N 37°50' W 122°26'4 3.8
2015-Nov-23 14:33N 37°52' W 122°30'  
2015-Nov-21 02:34N 37°52' W 122°28'1 1.2
2015-Nov-21 01:33N 37°52' W 122°30'1 1.1
2015-Nov-21 00:33N 37°52' W 122°29'1 0.7
2015-Nov-20 23:34N 37°51' W 122°28'0 0.3
2015-Nov-20 22:34N 37°51' W 122°27'2 1.9
2015-Nov-20 21:28N 37°52' W 122°30'0 0.1
2015-Nov-20 20:33N 37°52' W 122°30'0 0.4
2015-Nov-20 19:32N 37°52' W 122°29'3 3.0
2015-Nov-20 18:34N 37°50' W 122°26'3 0.2
2015-Nov-20 02:33N 37°52' W 122°29'4 3.8
2015-Nov-20 01:34N 37°49' W 122°25'3 3.2
2015-Nov-20 00:34N 37°52' W 122°28'0 0.0
2015-Nov-19 22:33N 37°52' W 122°28'0 0.2
2015-Nov-19 21:34N 37°52' W 122°29'2 2.3
2015-Nov-19 20:34N 37°50' W 122°26'3 3.3
2015-Nov-19 19:32N 37°52' W 122°30'0 0.1
2015-Nov-19 18:33N 37°52' W 122°30'0 0.1
2015-Nov-19 17:33N 37°52' W 122°30'0 0.0
2015-Nov-19 00:09N 37°52' W 122°30'0 0.5
2015-Nov-18 23:33N 37°52' W 122°29'0 0.1
2015-Nov-18 19:23N 37°52' W 122°30'4 5.2
2015-Nov-18 18:33N 37°50' W 122°25'3 3.0
2015-Nov-18 17:34N 37°51' W 122°28'0 0.0
2015-Nov-18 02:34N 37°52' W 122°29'1 0.9
2015-Nov-18 01:30N 37°52' W 122°30'0 0.0
2015-Nov-18 00:27N 37°52' W 122°30'0 0.0
2015-Nov-17 23:19N 37°52' W 122°30'1 0.2
2015-Nov-17 20:33N 37°52' W 122°29'4 3.5
2015-Nov-17 19:34N 37°50' W 122°25'4 4.0
2015-Nov-17 18:33N 37°52' W 122°30'0 0.0
2015-Nov-17 01:11N 37°52' W 122°30'0 0.1
2015-Nov-17 00:33N 37°52' W 122°30'0 0.1
2015-Nov-16 23:24N 37°52' W 122°30'0 0.0
2015-Nov-16 22:31N 37°52' W 122°30'0 0.0
2015-Nov-16 18:26N 37°52' W 122°30'0 0.0
2015-Nov-16 16:33N 37°52' W 122°30'4 4.4
2015-Nov-16 15:34N 37°49' W 122°25'4 3.9
2015-Nov-16 14:33N 37°52' W 122°29'  
Track history (hours):
 
Tides and Currents Weather Stations Pressure Air Temp Water Temp Dewpoint Dewpoint Depression Visibility Wind Speed Wind Dir Waves Ship Positions

Silia

Owner: greger pacific marine, napa, CA. More information available from US FCC via Universal Licensing System and Coast Guard Vessel Documentation Center.

Last reported at 2015-Nov-24 19:31 UTC. Time now 2016-Feb-07 10:39 UTC.
Position N 38°02' W 122°22'.
Warning: this ship's position is months out of date.

Length 17 m; draft 3 m.

Type: Tug. MMSI: 367511460.

Date/timePositionNaut miles runAvg speedWind from/ knotsBaromVisibWave heightAir tempDewpointWater temp
2015-Nov-24 19:31N 38°02' W 122°22'9 8.9
2015-Nov-24 18:33N 37°54' W 122°26'3 2.9
2015-Nov-24 17:27N 37°52' W 122°30'0 0.0
2015-Nov-24 16:27N 37°52' W 122°30'0 0.2
2015-Nov-24 15:33N 37°52' W 122°30'4 0.4
2015-Nov-24 05:33N 37°50' W 122°26'8 7.7
2015-Nov-24 04:33N 37°47' W 122°16'0 0.3
2015-Nov-24 03:33N 37°48' W 122°17'5 5.2
2015-Nov-24 02:33N 37°49' W 122°23'5 4.7
2015-Nov-24 01:33N 37°52' W 122°28'0 0.1
2015-Nov-24 00:33N 37°52' W 122°28'1 0.8
2015-Nov-23 23:33N 37°52' W 122°29'2 1.7
2015-Nov-23 22:33N 37°51' W 122°27'1 0.9
2015-Nov-23 21:33N 37°52' W 122°28'1 0.3
2015-Nov-23 19:33N 37°52' W 122°29'9 9.1
2015-Nov-23 18:33N 37°48' W 122°19'3 2.9
2015-Nov-23 17:33N 37°47' W 122°15'4 4.3
2015-Nov-23 16:34N 37°48' W 122°21'5 4.6
2015-Nov-23 15:34N 37°50' W 122°26'4 3.8
2015-Nov-23 14:33N 37°52' W 122°30'  
2015-Nov-21 02:34N 37°52' W 122°28'1 1.2
2015-Nov-21 01:33N 37°52' W 122°30'1 1.1
2015-Nov-21 00:33N 37°52' W 122°29'1 0.7
2015-Nov-20 23:34N 37°51' W 122°28'0 0.3
2015-Nov-20 22:34N 37°51' W 122°27'2 1.9
2015-Nov-20 21:28N 37°52' W 122°30'0 0.1
2015-Nov-20 20:33N 37°52' W 122°30'0 0.4
2015-Nov-20 19:32N 37°52' W 122°29'3 3.0
2015-Nov-20 18:34N 37°50' W 122°26'3 0.2
2015-Nov-20 02:33N 37°52' W 122°29'4 3.8
2015-Nov-20 01:34N 37°49' W 122°25'3 3.2
2015-Nov-20 00:34N 37°52' W 122°28'0 0.0
2015-Nov-19 22:33N 37°52' W 122°28'0 0.2
2015-Nov-19 21:34N 37°52' W 122°29'2 2.3
2015-Nov-19 20:34N 37°50' W 122°26'3 3.3
2015-Nov-19 19:32N 37°52' W 122°30'0 0.1
2015-Nov-19 18:33N 37°52' W 122°30'0 0.1
2015-Nov-19 17:33N 37°52' W 122°30'0 0.0
2015-Nov-19 00:09N 37°52' W 122°30'0 0.5
2015-Nov-18 23:33N 37°52' W 122°29'0 0.1
2015-Nov-18 19:23N 37°52' W 122°30'4 5.2
2015-Nov-18 18:33N 37°50' W 122°25'3 3.0
2015-Nov-18 17:34N 37°51' W 122°28'0 0.0
2015-Nov-18 02:34N 37°52' W 122°29'1 0.9
2015-Nov-18 01:30N 37°52' W 122°30'0 0.0
2015-Nov-18 00:27N 37°52' W 122°30'0 0.0
2015-Nov-17 23:19N 37°52' W 122°30'1 0.2
2015-Nov-17 20:33N 37°52' W 122°29'4 3.5
2015-Nov-17 19:34N 37°50' W 122°25'4 4.0
2015-Nov-17 18:33N 37°52' W 122°30'0 0.0
2015-Nov-17 01:11N 37°52' W 122°30'0 0.1
2015-Nov-17 00:33N 37°52' W 122°30'0 0.1
2015-Nov-16 23:24N 37°52' W 122°30'0 0.0
2015-Nov-16 22:31N 37°52' W 122°30'0 0.0
2015-Nov-16 18:26N 37°52' W 122°30'0 0.0
2015-Nov-16 16:33N 37°52' W 122°30'4 4.4
2015-Nov-16 15:34N 37°49' W 122°25'4 3.9
2015-Nov-16 14:33N 37°52' W 122°29'  

Dump ship's entire track history